sensor_id;sensor_type;location;lat;lon;timestamp;P1;durP1;ratioP1;P2;durP2;ratioP2
11344;SDS011;5727;42.600;23.028;2024-02-04T00:02:02;87.27;;;49.50;;
11344;SDS011;5727;42.600;23.028;2024-02-04T00:04:33;84.20;;;49.57;;
11344;SDS011;5727;42.600;23.028;2024-02-04T00:07:01;88.70;;;49.13;;
11344;SDS011;5727;42.600;23.028;2024-02-04T00:09:28;86.50;;;47.57;;
11344;SDS011;5727;42.600;23.028;2024-02-04T00:11:54;85.57;;;47.37;;
11344;SDS011;5727;42.600;23.028;2024-02-04T00:14:23;86.17;;;46.43;;
11344;SDS011;5727;42.600;23.028;2024-02-04T00:16:50;86.17;;;46.83;;
11344;SDS011;5727;42.600;23.028;2024-02-04T00:19:17;85.23;;;47.37;;
11344;SDS011;5727;42.600;23.028;2024-02-04T00:21:45;83.03;;;46.13;;
11344;SDS011;5727;42.600;23.028;2024-02-04T00:24:12;74.43;;;43.53;;
11344;SDS011;5727;42.600;23.028;2024-02-04T00:26:39;89.67;;;46.90;;
11344;SDS011;5727;42.600;23.028;2024-02-04T00:29:06;90.67;;;46.90;;
11344;SDS011;5727;42.600;23.028;2024-02-04T00:31:33;87.10;;;48.60;;
11344;SDS011;5727;42.600;23.028;2024-02-04T00:34:00;88.77;;;46.20;;
11344;SDS011;5727;42.600;23.028;2024-02-04T00:36:27;84.30;;;46.53;;
11344;SDS011;5727;42.600;23.028;2024-02-04T00:38:55;84.10;;;44.07;;
11344;SDS011;5727;42.600;23.028;2024-02-04T00:41:22;83.30;;;43.93;;
11344;SDS011;5727;42.600;23.028;2024-02-04T00:43:49;67.73;;;36.53;;
11344;SDS011;5727;42.600;23.028;2024-02-04T00:46:16;59.37;;;32.63;;
11344;SDS011;5727;42.600;23.028;2024-02-04T00:48:44;53.27;;;27.33;;
11344;SDS011;5727;42.600;23.028;2024-02-04T00:51:11;40.33;;;23.60;;
11344;SDS011;5727;42.600;23.028;2024-02-04T00:53:39;41.70;;;23.53;;
11344;SDS011;5727;42.600;23.028;2024-02-04T00:56:08;42.40;;;21.73;;
11344;SDS011;5727;42.600;23.028;2024-02-04T00:58:36;45.77;;;22.20;;
11344;SDS011;5727;42.600;23.028;2024-02-04T01:01:03;40.10;;;22.00;;
11344;SDS011;5727;42.600;23.028;2024-02-04T01:03:30;38.87;;;23.07;;
11344;SDS011;5727;42.600;23.028;2024-02-04T01:05:58;42.10;;;24.20;;
11344;SDS011;5727;42.600;23.028;2024-02-04T01:08:25;46.47;;;23.90;;
11344;SDS011;5727;42.600;23.028;2024-02-04T01:10:52;40.93;;;23.63;;
11344;SDS011;5727;42.600;23.028;2024-02-04T01:13:20;40.53;;;22.37;;
11344;SDS011;5727;42.600;23.028;2024-02-04T01:15:48;40.87;;;22.43;;
11344;SDS011;5727;42.600;23.028;2024-02-04T01:18:15;38.80;;;22.23;;
11344;SDS011;5727;42.600;23.028;2024-02-04T01:20:42;44.20;;;23.50;;
11344;SDS011;5727;42.600;23.028;2024-02-04T01:23:09;36.50;;;23.27;;
11344;SDS011;5727;42.600;23.028;2024-02-04T01:25:36;49.40;;;22.67;;
11344;SDS011;5727;42.600;23.028;2024-02-04T01:28:03;47.47;;;24.83;;
11344;SDS011;5727;42.600;23.028;2024-02-04T01:30:31;43.97;;;24.17;;
11344;SDS011;5727;42.600;23.028;2024-02-04T01:32:58;46.53;;;24.17;;
11344;SDS011;5727;42.600;23.028;2024-02-04T01:35:25;40.63;;;23.73;;
11344;SDS011;5727;42.600;23.028;2024-02-04T01:37:52;42.37;;;24.07;;
11344;SDS011;5727;42.600;23.028;2024-02-04T01:40:19;41.13;;;23.67;;
11344;SDS011;5727;42.600;23.028;2024-02-04T01:42:46;45.20;;;24.97;;
11344;SDS011;5727;42.600;23.028;2024-02-04T01:45:13;46.60;;;23.47;;
11344;SDS011;5727;42.600;23.028;2024-02-04T01:47:42;44.07;;;24.57;;
11344;SDS011;5727;42.600;23.028;2024-02-04T01:50:09;46.37;;;25.43;;
11344;SDS011;5727;42.600;23.028;2024-02-04T01:52:37;48.27;;;27.90;;
11344;SDS011;5727;42.600;23.028;2024-02-04T01:55:07;49.20;;;26.90;;
11344;SDS011;5727;42.600;23.028;2024-02-04T01:57:34;47.63;;;27.17;;
11344;SDS011;5727;42.600;23.028;2024-02-04T02:00:02;50.43;;;25.37;;
11344;SDS011;5727;42.600;23.028;2024-02-04T02:02:29;52.57;;;25.83;;
11344;SDS011;5727;42.600;23.028;2024-02-04T02:05:00;48.87;;;24.30;;
11344;SDS011;5727;42.600;23.028;2024-02-04T02:07:27;40.87;;;24.13;;
11344;SDS011;5727;42.600;23.028;2024-02-04T02:09:54;44.33;;;23.40;;
11344;SDS011;5727;42.600;23.028;2024-02-04T02:12:22;43.53;;;24.43;;
11344;SDS011;5727;42.600;23.028;2024-02-04T02:14:54;44.73;;;23.67;;
11344;SDS011;5727;42.600;23.028;2024-02-04T02:17:28;42.77;;;25.07;;
11344;SDS011;5727;42.600;23.028;2024-02-04T02:20:05;46.77;;;25.03;;
11344;SDS011;5727;42.600;23.028;2024-02-04T02:22:40;41.33;;;23.20;;
11344;SDS011;5727;42.600;23.028;2024-02-04T02:25:15;42.00;;;22.77;;
11344;SDS011;5727;42.600;23.028;2024-02-04T02:27:46;40.37;;;22.10;;
11344;SDS011;5727;42.600;23.028;2024-02-04T02:30:14;42.33;;;22.73;;
11344;SDS011;5727;42.600;23.028;2024-02-04T02:32:42;41.20;;;22.77;;
11344;SDS011;5727;42.600;23.028;2024-02-04T02:35:10;39.67;;;21.33;;
11344;SDS011;5727;42.600;23.028;2024-02-04T02:37:40;42.83;;;22.80;;
11344;SDS011;5727;42.600;23.028;2024-02-04T02:40:16;42.27;;;22.03;;
11344;SDS011;5727;42.600;23.028;2024-02-04T02:42:49;40.93;;;21.93;;
11344;SDS011;5727;42.600;23.028;2024-02-04T02:45:19;33.87;;;21.07;;
11344;SDS011;5727;42.600;23.028;2024-02-04T02:47:50;42.40;;;21.67;;
11344;SDS011;5727;42.600;23.028;2024-02-04T02:50:18;38.40;;;21.13;;
11344;SDS011;5727;42.600;23.028;2024-02-04T02:52:45;38.63;;;21.30;;
11344;SDS011;5727;42.600;23.028;2024-02-04T02:55:12;35.07;;;21.77;;
11344;SDS011;5727;42.600;23.028;2024-02-04T02:57:40;38.07;;;21.00;;
11344;SDS011;5727;42.600;23.028;2024-02-04T03:00:08;37.10;;;21.57;;
11344;SDS011;5727;42.600;23.028;2024-02-04T03:02:35;41.90;;;22.67;;
11344;SDS011;5727;42.600;23.028;2024-02-04T03:05:02;33.60;;;20.57;;
11344;SDS011;5727;42.600;23.028;2024-02-04T03:07:29;34.03;;;21.80;;
11344;SDS011;5727;42.600;23.028;2024-02-04T03:09:56;42.00;;;23.43;;
11344;SDS011;5727;42.600;23.028;2024-02-04T03:12:23;38.50;;;22.33;;
11344;SDS011;5727;42.600;23.028;2024-02-04T03:14:51;47.37;;;23.13;;
11344;SDS011;5727;42.600;23.028;2024-02-04T03:17:17;40.83;;;23.47;;
11344;SDS011;5727;42.600;23.028;2024-02-04T03:19:46;38.33;;;23.30;;
11344;SDS011;5727;42.600;23.028;2024-02-04T03:22:13;44.73;;;23.27;;
11344;SDS011;5727;42.600;23.028;2024-02-04T03:24:40;44.43;;;24.43;;
11344;SDS011;5727;42.600;23.028;2024-02-04T03:27:08;39.60;;;23.23;;
11344;SDS011;5727;42.600;23.028;2024-02-04T03:29:35;40.33;;;24.20;;
11344;SDS011;5727;42.600;23.028;2024-02-04T03:32:04;38.40;;;22.73;;
11344;SDS011;5727;42.600;23.028;2024-02-04T03:34:31;41.53;;;23.10;;
11344;SDS011;5727;42.600;23.028;2024-02-04T03:36:58;43.03;;;23.50;;
11344;SDS011;5727;42.600;23.028;2024-02-04T03:39:25;47.20;;;23.43;;
11344;SDS011;5727;42.600;23.028;2024-02-04T03:41:52;44.47;;;24.23;;
11344;SDS011;5727;42.600;23.028;2024-02-04T03:44:19;44.50;;;24.53;;
11344;SDS011;5727;42.600;23.028;2024-02-04T03:46:47;38.73;;;24.23;;
11344;SDS011;5727;42.600;23.028;2024-02-04T03:49:16;51.50;;;25.83;;
11344;SDS011;5727;42.600;23.028;2024-02-04T03:51:43;46.00;;;26.17;;
11344;SDS011;5727;42.600;23.028;2024-02-04T03:54:11;42.77;;;25.50;;
11344;SDS011;5727;42.600;23.028;2024-02-04T03:56:38;46.53;;;26.90;;
11344;SDS011;5727;42.600;23.028;2024-02-04T03:59:04;43.27;;;24.87;;
11344;SDS011;5727;42.600;23.028;2024-02-04T04:01:36;41.23;;;25.20;;
11344;SDS011;5727;42.600;23.028;2024-02-04T04:04:03;53.47;;;28.20;;
11344;SDS011;5727;42.600;23.028;2024-02-04T04:06:31;53.13;;;28.13;;
11344;SDS011;5727;42.600;23.028;2024-02-04T04:08:58;48.23;;;28.97;;
11344;SDS011;5727;42.600;23.028;2024-02-04T04:11:25;54.53;;;29.40;;
11344;SDS011;5727;42.600;23.028;2024-02-04T04:13:52;58.77;;;34.03;;
11344;SDS011;5727;42.600;23.028;2024-02-04T04:16:20;60.87;;;32.20;;
11344;SDS011;5727;42.600;23.028;2024-02-04T04:18:47;56.73;;;31.83;;
11344;SDS011;5727;42.600;23.028;2024-02-04T04:21:14;64.93;;;34.60;;
11344;SDS011;5727;42.600;23.028;2024-02-04T04:23:43;61.60;;;32.10;;
11344;SDS011;5727;42.600;23.028;2024-02-04T04:26:10;58.30;;;31.47;;
11344;SDS011;5727;42.600;23.028;2024-02-04T04:28:37;50.50;;;29.33;;
11344;SDS011;5727;42.600;23.028;2024-02-04T04:31:04;49.23;;;28.20;;
11344;SDS011;5727;42.600;23.028;2024-02-04T04:33:31;50.50;;;29.07;;
11344;SDS011;5727;42.600;23.028;2024-02-04T04:35:58;55.33;;;32.67;;
11344;SDS011;5727;42.600;23.028;2024-02-04T04:38:25;59.80;;;31.13;;
11344;SDS011;5727;42.600;23.028;2024-02-04T04:40:53;46.70;;;28.83;;
11344;SDS011;5727;42.600;23.028;2024-02-04T04:43:20;43.20;;;27.13;;
11344;SDS011;5727;42.600;23.028;2024-02-04T04:45:47;46.10;;;24.97;;
11344;SDS011;5727;42.600;23.028;2024-02-04T04:48:14;41.93;;;26.33;;
11344;SDS011;5727;42.600;23.028;2024-02-04T04:50:41;43.33;;;23.73;;
11344;SDS011;5727;42.600;23.028;2024-02-04T04:53:08;40.40;;;23.30;;
11344;SDS011;5727;42.600;23.028;2024-02-04T04:55:35;43.47;;;25.03;;
11344;SDS011;5727;42.600;23.028;2024-02-04T04:58:03;46.70;;;23.73;;
11344;SDS011;5727;42.600;23.028;2024-02-04T05:00:30;42.53;;;24.43;;
11344;SDS011;5727;42.600;23.028;2024-02-04T05:02:57;38.00;;;23.43;;
11344;SDS011;5727;42.600;23.028;2024-02-04T05:05:24;45.33;;;24.07;;
11344;SDS011;5727;42.600;23.028;2024-02-04T05:07:51;41.27;;;23.53;;
11344;SDS011;5727;42.600;23.028;2024-02-04T05:10:18;40.00;;;22.93;;
11344;SDS011;5727;42.600;23.028;2024-02-04T05:12:45;46.43;;;24.10;;
11344;SDS011;5727;42.600;23.028;2024-02-04T05:15:13;46.63;;;24.60;;
11344;SDS011;5727;42.600;23.028;2024-02-04T05:17:40;40.07;;;24.07;;
11344;SDS011;5727;42.600;23.028;2024-02-04T05:20:07;43.70;;;25.17;;
11344;SDS011;5727;42.600;23.028;2024-02-04T05:22:35;41.57;;;25.93;;
11344;SDS011;5727;42.600;23.028;2024-02-04T05:25:02;45.80;;;25.30;;
11344;SDS011;5727;42.600;23.028;2024-02-04T05:27:30;38.07;;;25.03;;
11344;SDS011;5727;42.600;23.028;2024-02-04T05:29:57;49.57;;;25.07;;
11344;SDS011;5727;42.600;23.028;2024-02-04T05:32:26;45.43;;;25.93;;
11344;SDS011;5727;42.600;23.028;2024-02-04T05:34:53;50.23;;;28.77;;
11344;SDS011;5727;42.600;23.028;2024-02-04T05:37:20;47.23;;;26.87;;
11344;SDS011;5727;42.600;23.028;2024-02-04T05:39:47;38.67;;;24.57;;
11344;SDS011;5727;42.600;23.028;2024-02-04T05:42:14;47.67;;;25.07;;
11344;SDS011;5727;42.600;23.028;2024-02-04T05:44:41;38.27;;;22.37;;
11344;SDS011;5727;42.600;23.028;2024-02-04T05:47:07;36.07;;;22.50;;
11344;SDS011;5727;42.600;23.028;2024-02-04T05:49:36;36.40;;;22.00;;
11344;SDS011;5727;42.600;23.028;2024-02-04T05:52:03;36.30;;;20.97;;
11344;SDS011;5727;42.600;23.028;2024-02-04T05:54:31;34.13;;;21.60;;
11344;SDS011;5727;42.600;23.028;2024-02-04T05:56:57;35.57;;;20.73;;
11344;SDS011;5727;42.600;23.028;2024-02-04T05:59:24;33.50;;;21.13;;
11344;SDS011;5727;42.600;23.028;2024-02-04T06:01:51;33.37;;;20.73;;
11344;SDS011;5727;42.600;23.028;2024-02-04T06:04:18;34.73;;;20.47;;
11344;SDS011;5727;42.600;23.028;2024-02-04T06:06:47;35.73;;;20.90;;
11344;SDS011;5727;42.600;23.028;2024-02-04T06:09:14;36.53;;;21.90;;
11344;SDS011;5727;42.600;23.028;2024-02-04T06:11:44;34.73;;;21.47;;
11344;SDS011;5727;42.600;23.028;2024-02-04T06:14:12;35.60;;;21.60;;
11344;SDS011;5727;42.600;23.028;2024-02-04T06:16:39;34.67;;;20.60;;
11344;SDS011;5727;42.600;23.028;2024-02-04T06:19:06;32.73;;;21.63;;
11344;SDS011;5727;42.600;23.028;2024-02-04T06:21:34;36.20;;;21.20;;
11344;SDS011;5727;42.600;23.028;2024-02-04T06:24:02;33.83;;;21.23;;
11344;SDS011;5727;42.600;23.028;2024-02-04T06:26:29;34.03;;;22.30;;
11344;SDS011;5727;42.600;23.028;2024-02-04T06:28:56;38.67;;;22.50;;
11344;SDS011;5727;42.600;23.028;2024-02-04T06:31:23;39.60;;;22.67;;
11344;SDS011;5727;42.600;23.028;2024-02-04T06:33:50;44.33;;;23.67;;
11344;SDS011;5727;42.600;23.028;2024-02-04T06:36:17;35.80;;;23.37;;
11344;SDS011;5727;42.600;23.028;2024-02-04T06:38:44;38.13;;;24.43;;
11344;SDS011;5727;42.600;23.028;2024-02-04T06:41:12;38.93;;;24.97;;
11344;SDS011;5727;42.600;23.028;2024-02-04T06:43:40;35.20;;;22.50;;
11344;SDS011;5727;42.600;23.028;2024-02-04T06:46:07;37.13;;;22.20;;
11344;SDS011;5727;42.600;23.028;2024-02-04T06:48:33;38.93;;;23.07;;
11344;SDS011;5727;42.600;23.028;2024-02-04T06:51:00;40.60;;;23.13;;
11344;SDS011;5727;42.600;23.028;2024-02-04T06:53:27;40.77;;;22.73;;
11344;SDS011;5727;42.600;23.028;2024-02-04T06:55:54;45.30;;;24.23;;
11344;SDS011;5727;42.600;23.028;2024-02-04T06:58:23;40.03;;;23.67;;
11344;SDS011;5727;42.600;23.028;2024-02-04T07:00:50;39.50;;;25.60;;
11344;SDS011;5727;42.600;23.028;2024-02-04T07:03:17;41.73;;;25.60;;
11344;SDS011;5727;42.600;23.028;2024-02-04T07:05:44;63.13;;;35.13;;
11344;SDS011;5727;42.600;23.028;2024-02-04T07:08:12;70.93;;;40.50;;
11344;SDS011;5727;42.600;23.028;2024-02-04T07:10:39;61.47;;;33.80;;
11344;SDS011;5727;42.600;23.028;2024-02-04T07:13:06;54.87;;;31.70;;
11344;SDS011;5727;42.600;23.028;2024-02-04T07:15:38;55.83;;;31.37;;
11344;SDS011;5727;42.600;23.028;2024-02-04T07:18:05;63.77;;;36.70;;
11344;SDS011;5727;42.600;23.028;2024-02-04T07:20:32;67.07;;;36.60;;
11344;SDS011;5727;42.600;23.028;2024-02-04T07:22:59;98.97;;;60.40;;
11344;SDS011;5727;42.600;23.028;2024-02-04T07:25:26;70.90;;;42.77;;
11344;SDS011;5727;42.600;23.028;2024-02-04T07:27:53;70.90;;;39.70;;
11344;SDS011;5727;42.600;23.028;2024-02-04T07:30:21;73.40;;;41.67;;
11344;SDS011;5727;42.600;23.028;2024-02-04T07:32:50;80.03;;;44.30;;
11344;SDS011;5727;42.600;23.028;2024-02-04T07:35:17;98.10;;;55.00;;
11344;SDS011;5727;42.600;23.028;2024-02-04T07:37:44;117.53;;;63.67;;
11344;SDS011;5727;42.600;23.028;2024-02-04T07:40:11;108.83;;;61.10;;
11344;SDS011;5727;42.600;23.028;2024-02-04T07:42:38;116.90;;;64.47;;
11344;SDS011;5727;42.600;23.028;2024-02-04T07:45:06;95.50;;;52.13;;
11344;SDS011;5727;42.600;23.028;2024-02-04T07:47:35;96.80;;;49.57;;
11344;SDS011;5727;42.600;23.028;2024-02-04T07:50:03;114.27;;;62.47;;
11344;SDS011;5727;42.600;23.028;2024-02-04T07:52:31;83.43;;;49.17;;
11344;SDS011;5727;42.600;23.028;2024-02-04T07:54:58;85.57;;;47.53;;
11344;SDS011;5727;42.600;23.028;2024-02-04T07:57:25;78.63;;;45.10;;
11344;SDS011;5727;42.600;23.028;2024-02-04T07:59:52;72.17;;;42.77;;
11344;SDS011;5727;42.600;23.028;2024-02-04T08:02:20;72.80;;;41.80;;
11344;SDS011;5727;42.600;23.028;2024-02-04T08:04:47;73.00;;;39.00;;
11344;SDS011;5727;42.600;23.028;2024-02-04T08:07:15;72.13;;;39.10;;
11344;SDS011;5727;42.600;23.028;2024-02-04T08:09:43;65.70;;;38.47;;
11344;SDS011;5727;42.600;23.028;2024-02-04T08:12:09;69.27;;;39.93;;
11344;SDS011;5727;42.600;23.028;2024-02-04T08:14:37;68.40;;;36.30;;
11344;SDS011;5727;42.600;23.028;2024-02-04T08:17:04;67.63;;;38.07;;
11344;SDS011;5727;42.600;23.028;2024-02-04T08:19:31;74.20;;;38.33;;
11344;SDS011;5727;42.600;23.028;2024-02-04T08:21:58;67.00;;;38.77;;
11344;SDS011;5727;42.600;23.028;2024-02-04T08:24:27;65.43;;;39.57;;
11344;SDS011;5727;42.600;23.028;2024-02-04T08:26:57;68.53;;;40.40;;
11344;SDS011;5727;42.600;23.028;2024-02-04T08:29:24;69.80;;;39.33;;
11344;SDS011;5727;42.600;23.028;2024-02-04T08:31:51;66.23;;;38.70;;
11344;SDS011;5727;42.600;23.028;2024-02-04T08:34:19;67.73;;;38.07;;
11344;SDS011;5727;42.600;23.028;2024-02-04T08:36:49;66.07;;;37.47;;
11344;SDS011;5727;42.600;23.028;2024-02-04T08:39:16;72.40;;;44.93;;
11344;SDS011;5727;42.600;23.028;2024-02-04T08:41:49;77.50;;;43.87;;
11344;SDS011;5727;42.600;23.028;2024-02-04T08:44:16;78.23;;;43.90;;
11344;SDS011;5727;42.600;23.028;2024-02-04T08:46:43;73.27;;;44.63;;
11344;SDS011;5727;42.600;23.028;2024-02-04T08:49:10;70.97;;;42.10;;
11344;SDS011;5727;42.600;23.028;2024-02-04T08:51:37;76.07;;;47.10;;
11344;SDS011;5727;42.600;23.028;2024-02-04T08:54:04;83.07;;;48.63;;
11344;SDS011;5727;42.600;23.028;2024-02-04T08:56:31;83.87;;;47.03;;
11344;SDS011;5727;42.600;23.028;2024-02-04T08:59:00;77.87;;;47.77;;
11344;SDS011;5727;42.600;23.028;2024-02-04T09:01:27;80.70;;;45.90;;
11344;SDS011;5727;42.600;23.028;2024-02-04T09:03:54;83.63;;;47.73;;
11344;SDS011;5727;42.600;23.028;2024-02-04T09:06:21;84.23;;;50.60;;
11344;SDS011;5727;42.600;23.028;2024-02-04T09:08:48;76.70;;;48.80;;
11344;SDS011;5727;42.600;23.028;2024-02-04T09:11:15;80.73;;;47.93;;
11344;SDS011;5727;42.600;23.028;2024-02-04T09:13:44;80.37;;;47.20;;
11344;SDS011;5727;42.600;23.028;2024-02-04T09:16:12;70.00;;;43.80;;
11344;SDS011;5727;42.600;23.028;2024-02-04T09:18:39;36.83;;;23.33;;
11344;SDS011;5727;42.600;23.028;2024-02-04T09:21:06;31.40;;;19.67;;
11344;SDS011;5727;42.600;23.028;2024-02-04T09:23:33;24.30;;;16.83;;
11344;SDS011;5727;42.600;23.028;2024-02-04T09:26:00;21.57;;;11.83;;
11344;SDS011;5727;42.600;23.028;2024-02-04T09:28:27;17.57;;;10.73;;
11344;SDS011;5727;42.600;23.028;2024-02-04T09:30:54;10.97;;;8.90;;
11344;SDS011;5727;42.600;23.028;2024-02-04T09:33:22;9.77;;;6.90;;
11344;SDS011;5727;42.600;23.028;2024-02-04T09:35:49;9.50;;;6.27;;
11344;SDS011;5727;42.600;23.028;2024-02-04T09:38:16;9.67;;;5.90;;
11344;SDS011;5727;42.600;23.028;2024-02-04T09:40:43;7.37;;;5.10;;
11344;SDS011;5727;42.600;23.028;2024-02-04T09:43:10;7.43;;;5.23;;
11344;SDS011;5727;42.600;23.028;2024-02-04T09:45:38;6.90;;;5.63;;
11344;SDS011;5727;42.600;23.028;2024-02-04T09:48:06;7.50;;;5.70;;
11344;SDS011;5727;42.600;23.028;2024-02-04T09:50:36;7.40;;;6.10;;
11344;SDS011;5727;42.600;23.028;2024-02-04T09:53:03;7.07;;;5.17;;
11344;SDS011;5727;42.600;23.028;2024-02-04T09:55:34;5.50;;;4.87;;
11344;SDS011;5727;42.600;23.028;2024-02-04T09:58:01;9.63;;;6.27;;
11344;SDS011;5727;42.600;23.028;2024-02-04T10:00:29;5.30;;;3.80;;
11344;SDS011;5727;42.600;23.028;2024-02-04T10:02:59;4.60;;;3.00;;
11344;SDS011;5727;42.600;23.028;2024-02-04T10:05:27;3.73;;;3.43;;
11344;SDS011;5727;42.600;23.028;2024-02-04T10:07:55;2.80;;;2.60;;
11344;SDS011;5727;42.600;23.028;2024-02-04T10:10:22;4.77;;;2.90;;
11344;SDS011;5727;42.600;23.028;2024-02-04T10:12:49;2.60;;;2.40;;
11344;SDS011;5727;42.600;23.028;2024-02-04T10:15:16;3.23;;;2.43;;
11344;SDS011;5727;42.600;23.028;2024-02-04T10:17:44;2.53;;;2.33;;
11344;SDS011;5727;42.600;23.028;2024-02-04T10:20:12;2.27;;;2.10;;
11344;SDS011;5727;42.600;23.028;2024-02-04T10:22:39;3.80;;;2.00;;
11344;SDS011;5727;42.600;23.028;2024-02-04T10:25:08;1.80;;;1.70;;
11344;SDS011;5727;42.600;23.028;2024-02-04T10:27:37;3.87;;;1.90;;
11344;SDS011;5727;42.600;23.028;2024-02-04T10:30:04;1.53;;;1.50;;
11344;SDS011;5727;42.600;23.028;2024-02-04T10:32:32;1.80;;;1.70;;
11344;SDS011;5727;42.600;23.028;2024-02-04T10:35:00;1.70;;;1.60;;
11344;SDS011;5727;42.600;23.028;2024-02-04T10:37:27;1.50;;;1.40;;
11344;SDS011;5727;42.600;23.028;2024-02-04T10:39:54;1.70;;;1.60;;
11344;SDS011;5727;42.600;23.028;2024-02-04T10:42:24;1.60;;;1.50;;
11344;SDS011;5727;42.600;23.028;2024-02-04T10:44:51;2.77;;;1.67;;
11344;SDS011;5727;42.600;23.028;2024-02-04T10:47:21;1.90;;;1.80;;
11344;SDS011;5727;42.600;23.028;2024-02-04T10:49:50;1.70;;;1.60;;
11344;SDS011;5727;42.600;23.028;2024-02-04T10:52:19;1.60;;;1.50;;
11344;SDS011;5727;42.600;23.028;2024-02-04T10:54:49;1.50;;;1.40;;
11344;SDS011;5727;42.600;23.028;2024-02-04T10:57:19;3.27;;;2.00;;
11344;SDS011;5727;42.600;23.028;2024-02-04T10:59:49;1.73;;;1.40;;
11344;SDS011;5727;42.600;23.028;2024-02-04T11:02:18;1.70;;;1.60;;
11344;SDS011;5727;42.600;23.028;2024-02-04T11:04:46;1.50;;;1.50;;
11344;SDS011;5727;42.600;23.028;2024-02-04T11:07:15;1.90;;;1.80;;
11344;SDS011;5727;42.600;23.028;2024-02-04T11:09:44;1.57;;;1.57;;
11344;SDS011;5727;42.600;23.028;2024-02-04T11:12:14;1.67;;;1.57;;
11344;SDS011;5727;42.600;23.028;2024-02-04T11:14:45;1.90;;;1.80;;
11344;SDS011;5727;42.600;23.028;2024-02-04T11:17:24;1.80;;;1.70;;
11344;SDS011;5727;42.600;23.028;2024-02-04T11:20:19;1.80;;;1.70;;
11344;SDS011;5727;42.600;23.028;2024-02-04T11:23:03;2.70;;;2.50;;
11344;SDS011;5727;42.600;23.028;2024-02-04T11:25:44;2.20;;;1.90;;
11344;SDS011;5727;42.600;23.028;2024-02-04T11:28:15;2.20;;;2.10;;
11344;SDS011;5727;42.600;23.028;2024-02-04T11:30:44;2.17;;;2.00;;
11344;SDS011;5727;42.600;23.028;2024-02-04T11:33:13;2.20;;;2.00;;
11344;SDS011;5727;42.600;23.028;2024-02-04T11:35:44;2.40;;;1.87;;
11344;SDS011;5727;42.600;23.028;2024-02-04T11:38:12;2.03;;;1.93;;
11344;SDS011;5727;42.600;23.028;2024-02-04T11:40:45;2.10;;;1.90;;
11344;SDS011;5727;42.600;23.028;2024-02-04T11:43:12;1.90;;;1.80;;
11344;SDS011;5727;42.600;23.028;2024-02-04T11:45:41;2.10;;;2.00;;
11344;SDS011;5727;42.600;23.028;2024-02-04T11:48:09;2.10;;;2.00;;
11344;SDS011;5727;42.600;23.028;2024-02-04T11:50:38;2.97;;;2.77;;
11344;SDS011;5727;42.600;23.028;2024-02-04T11:53:06;2.97;;;2.70;;
11344;SDS011;5727;42.600;23.028;2024-02-04T11:55:34;3.33;;;2.00;;
11344;SDS011;5727;42.600;23.028;2024-02-04T11:58:03;2.30;;;1.90;;
11344;SDS011;5727;42.600;23.028;2024-02-04T12:00:32;2.20;;;2.10;;
11344;SDS011;5727;42.600;23.028;2024-02-04T12:03:00;2.13;;;2.03;;
11344;SDS011;5727;42.600;23.028;2024-02-04T12:05:29;2.10;;;1.90;;
11344;SDS011;5727;42.600;23.028;2024-02-04T12:08:00;2.00;;;1.90;;
11344;SDS011;5727;42.600;23.028;2024-02-04T12:10:29;4.47;;;3.23;;
11344;SDS011;5727;42.600;23.028;2024-02-04T12:12:57;3.73;;;2.33;;
11344;SDS011;5727;42.600;23.028;2024-02-04T12:15:25;3.00;;;2.70;;
11344;SDS011;5727;42.600;23.028;2024-02-04T12:17:52;2.40;;;2.20;;
11344;SDS011;5727;42.600;23.028;2024-02-04T12:20:19;3.63;;;2.93;;
11344;SDS011;5727;42.600;23.028;2024-02-04T12:22:46;2.37;;;2.17;;
11344;SDS011;5727;42.600;23.028;2024-02-04T12:25:15;2.00;;;1.90;;
11344;SDS011;5727;42.600;23.028;2024-02-04T12:27:43;3.70;;;2.30;;
11344;SDS011;5727;42.600;23.028;2024-02-04T12:30:13;2.27;;;2.07;;
11344;SDS011;5727;42.600;23.028;2024-02-04T12:32:40;2.60;;;2.40;;
11344;SDS011;5727;42.600;23.028;2024-02-04T12:35:07;2.83;;;2.63;;
11344;SDS011;5727;42.600;23.028;2024-02-04T12:37:34;2.60;;;2.40;;
11344;SDS011;5727;42.600;23.028;2024-02-04T12:40:03;3.57;;;3.07;;
11344;SDS011;5727;42.600;23.028;2024-02-04T12:42:33;2.77;;;2.27;;
11344;SDS011;5727;42.600;23.028;2024-02-04T12:45:00;2.70;;;2.50;;
11344;SDS011;5727;42.600;23.028;2024-02-04T12:47:26;3.17;;;2.80;;
11344;SDS011;5727;42.600;23.028;2024-02-04T12:49:57;3.73;;;2.70;;
11344;SDS011;5727;42.600;23.028;2024-02-04T12:52:27;4.67;;;4.23;;
11344;SDS011;5727;42.600;23.028;2024-02-04T12:54:56;4.30;;;3.00;;
11344;SDS011;5727;42.600;23.028;2024-02-04T12:57:23;3.40;;;3.10;;
11344;SDS011;5727;42.600;23.028;2024-02-04T12:59:51;3.40;;;3.10;;
11344;SDS011;5727;42.600;23.028;2024-02-04T13:02:18;2.47;;;2.30;;
11344;SDS011;5727;42.600;23.028;2024-02-04T13:04:46;1.90;;;1.80;;
11344;SDS011;5727;42.600;23.028;2024-02-04T13:07:14;2.67;;;2.17;;
11344;SDS011;5727;42.600;23.028;2024-02-04T13:09:42;2.10;;;1.90;;
11344;SDS011;5727;42.600;23.028;2024-02-04T13:12:09;2.60;;;2.10;;
11344;SDS011;5727;42.600;23.028;2024-02-04T13:14:37;2.77;;;1.87;;
11344;SDS011;5727;42.600;23.028;2024-02-04T13:17:08;2.33;;;2.00;;
11344;SDS011;5727;42.600;23.028;2024-02-04T13:19:36;1.93;;;1.80;;
11344;SDS011;5727;42.600;23.028;2024-02-04T13:22:04;4.27;;;2.90;;
11344;SDS011;5727;42.600;23.028;2024-02-04T13:24:32;2.77;;;2.57;;
11344;SDS011;5727;42.600;23.028;2024-02-04T13:26:59;2.40;;;2.20;;
11344;SDS011;5727;42.600;23.028;2024-02-04T13:29:28;3.10;;;2.37;;
11344;SDS011;5727;42.600;23.028;2024-02-04T13:31:55;3.57;;;2.37;;
11344;SDS011;5727;42.600;23.028;2024-02-04T13:34:23;2.60;;;2.40;;
11344;SDS011;5727;42.600;23.028;2024-02-04T13:36:50;2.37;;;2.17;;
11344;SDS011;5727;42.600;23.028;2024-02-04T13:39:18;1.90;;;1.80;;
11344;SDS011;5727;42.600;23.028;2024-02-04T13:41:45;2.10;;;2.00;;
11344;SDS011;5727;42.600;23.028;2024-02-04T13:44:13;1.90;;;1.80;;
11344;SDS011;5727;42.600;23.028;2024-02-04T13:46:40;2.13;;;1.70;;
11344;SDS011;5727;42.600;23.028;2024-02-04T13:49:08;2.70;;;2.50;;
11344;SDS011;5727;42.600;23.028;2024-02-04T13:51:38;1.70;;;1.60;;
11344;SDS011;5727;42.600;23.028;2024-02-04T13:54:05;2.00;;;1.90;;
11344;SDS011;5727;42.600;23.028;2024-02-04T13:56:32;2.47;;;2.13;;
11344;SDS011;5727;42.600;23.028;2024-02-04T13:58:59;2.30;;;2.10;;
11344;SDS011;5727;42.600;23.028;2024-02-04T14:01:26;2.00;;;1.90;;
11344;SDS011;5727;42.600;23.028;2024-02-04T14:03:53;3.50;;;2.10;;
11344;SDS011;5727;42.600;23.028;2024-02-04T14:06:20;2.13;;;2.03;;
11344;SDS011;5727;42.600;23.028;2024-02-04T14:08:49;2.50;;;2.30;;
11344;SDS011;5727;42.600;23.028;2024-02-04T14:11:16;2.07;;;1.93;;
11344;SDS011;5727;42.600;23.028;2024-02-04T14:13:43;2.63;;;2.40;;
11344;SDS011;5727;42.600;23.028;2024-02-04T14:16:10;2.90;;;2.20;;
11344;SDS011;5727;42.600;23.028;2024-02-04T14:18:37;2.60;;;2.00;;
11344;SDS011;5727;42.600;23.028;2024-02-04T14:21:05;2.47;;;2.27;;
11344;SDS011;5727;42.600;23.028;2024-02-04T14:23:34;2.50;;;2.30;;
11344;SDS011;5727;42.600;23.028;2024-02-04T14:26:03;2.27;;;2.00;;
11344;SDS011;5727;42.600;23.028;2024-02-04T14:28:33;2.00;;;1.90;;
11344;SDS011;5727;42.600;23.028;2024-02-04T14:31:06;2.73;;;2.43;;
11344;SDS011;5727;42.600;23.028;2024-02-04T14:33:33;2.17;;;1.97;;
11344;SDS011;5727;42.600;23.028;2024-02-04T14:36:00;2.00;;;1.90;;